MS65 weather

Delta Flying Service Inc Airport
Walls, Mississippi, United States

Public forecast

Using degrees Fahrenheit for public forecast. Weather courtesy of forecast.io.

METAR (pilot weather report)

Closest report is West Memphis Municipal Airport, 11.2 nm (20.8 km) N. Retrieved 2019/08/19 11:53 UTC (1 hour ago):

KAWM 191153Z AUTO 14003KT 8SM CLR 24/24 A3001 RMK AO2 SLP158 T02390239 10250 20233 53018 $

TAF (pilot weather forecast)

Closest forecast is Memphis International Airport, 12.3 nm (22.8 km) ENE. Retrieved 2019/08/19 12:34 UTC (26 minutes ago):

TAF KMEM 191132Z 1912/2018 14003KT P6SM FEW250 FM191500 19005KT P6SM SCT035 FM192100 17005KT P6SM VCSH SCT040 BKN250 FM200100 18003KT P6SM SCT250 TEMPO 2009/2013 5SM BR